createdAt,value
2023-04-13T00:00:36.988Z,40.03
2023-04-13T00:03:05.055Z,41.90
2023-04-13T00:05:34.546Z,38.20
2023-04-13T00:08:03.071Z,44.88
2023-04-13T00:10:37.017Z,39.75
2023-04-13T00:13:05.303Z,37.92
2023-04-13T00:15:34.824Z,41.58
2023-04-13T00:18:02.263Z,41.70
2023-04-13T00:20:30.052Z,37.00
2023-04-13T00:22:57.161Z,41.22
2023-04-13T00:25:24.422Z,42.80
2023-04-13T00:27:54.584Z,41.65
2023-04-13T00:30:22.122Z,37.30
2023-04-13T00:32:49.704Z,43.85
2023-04-13T00:35:25.178Z,38.00
2023-04-13T00:37:53.279Z,39.20
2023-04-13T00:40:20.554Z,40.78
2023-04-13T00:42:48.907Z,42.28
2023-04-13T00:45:18.257Z,39.63
2023-04-13T00:47:49.329Z,40.75
2023-04-13T00:50:21.097Z,38.80
2023-04-13T00:52:48.995Z,38.33
2023-04-13T00:55:21.793Z,39.67
2023-04-13T00:57:52.969Z,39.92
2023-04-13T01:00:20.787Z,43.35
2023-04-13T01:02:48.222Z,41.08
2023-04-13T01:05:17.041Z,41.65
2023-04-13T01:08:14.937Z,48.08
2023-04-13T01:10:54.682Z,34.70
2023-04-13T01:13:34.393Z,40.45
2023-04-13T01:16:12.129Z,38.78
2023-04-13T01:18:41.807Z,47.72
2023-04-13T01:21:13.215Z,42.92
2023-04-13T01:24:18.041Z,43.03
2023-04-13T01:27:03.820Z,46.05
2023-04-13T01:29:31.894Z,49.95
2023-04-13T01:32:00.475Z,43.90
2023-04-13T01:34:27.563Z,46.22
2023-04-13T01:36:55.804Z,45.05
2023-04-13T01:39:25.550Z,47.22
2023-04-13T01:41:52.357Z,45.40
2023-04-13T01:44:19.623Z,46.70
2023-04-13T01:46:50.968Z,43.85
2023-04-13T01:49:20.168Z,53.67
2023-04-13T01:51:48.268Z,45.13
2023-04-13T01:54:20.636Z,42.05
2023-04-13T01:56:48.842Z,52.13
2023-04-13T01:59:16.710Z,47.65
2023-04-13T02:01:44.653Z,46.28
2023-04-13T02:04:11.860Z,44.47
2023-04-13T02:06:39.528Z,47.08
2023-04-13T02:09:10.660Z,54.10
2023-04-13T02:11:38.088Z,46.90
2023-04-13T02:14:05.311Z,48.72
2023-04-13T02:16:33.157Z,50.60
2023-04-13T02:19:00.239Z,45.40
2023-04-13T02:21:27.255Z,48.22
2023-04-13T02:23:54.618Z,48.55
2023-04-13T02:26:21.503Z,49.30
2023-04-13T02:28:50.147Z,48.40
2023-04-13T02:31:20.534Z,46.17
2023-04-13T02:33:48.281Z,47.17
2023-04-13T02:36:17.373Z,51.72
2023-04-13T02:38:44.984Z,48.13
2023-04-13T02:41:12.839Z,52.33
2023-04-13T02:43:39.640Z,45.92
2023-04-13T02:46:07.088Z,48.33
2023-04-13T02:48:34.378Z,50.17
2023-04-13T02:51:01.186Z,46.95
2023-04-13T02:53:28.315Z,48.60
2023-04-13T02:55:55.580Z,47.47
2023-04-13T02:58:23.941Z,50.88
2023-04-13T03:00:51.313Z,47.47
2023-04-13T03:03:19.221Z,46.15
2023-04-13T03:05:47.327Z,50.15
2023-04-13T03:08:14.556Z,46.97
2023-04-13T03:10:43.245Z,43.05
2023-04-13T03:13:10.437Z,47.47
2023-04-13T03:15:37.851Z,50.88
2023-04-13T03:18:05.247Z,54.15
2023-04-13T03:20:32.698Z,49.38
2023-04-13T03:23:01.769Z,44.47
2023-04-13T03:25:28.773Z,47.53
2023-04-13T03:27:56.381Z,52.08
2023-04-13T03:30:24.024Z,53.45
2023-04-13T03:32:52.446Z,53.97
2023-04-13T03:35:19.295Z,56.25
2023-04-13T03:37:46.835Z,53.05
2023-04-13T03:40:13.775Z,52.97
2023-04-13T03:42:41.005Z,52.72
2023-04-13T03:45:08.713Z,52.67
2023-04-13T03:47:36.116Z,52.53
2023-04-13T03:50:03.850Z,50.17
2023-04-13T03:52:31.296Z,52.78
2023-04-13T03:54:58.201Z,48.70
2023-04-13T03:57:25.243Z,50.58
2023-04-13T03:59:52.469Z,49.67
2023-04-13T04:02:19.443Z,53.90
2023-04-13T04:04:46.858Z,54.58
2023-04-13T04:07:14.446Z,54.95
2023-04-13T04:09:42.068Z,52.45
2023-04-13T04:12:09.285Z,52.30
2023-04-13T04:14:36.192Z,56.15
2023-04-13T04:17:03.238Z,58.25
2023-04-13T04:19:30.703Z,55.30
2023-04-13T04:21:58.129Z,48.80
2023-04-13T04:24:27.716Z,52.50
2023-04-13T04:26:55.753Z,51.78
2023-04-13T04:29:30.192Z,52.60
2023-04-13T04:31:57.424Z,51.33
2023-04-13T04:34:24.743Z,47.58
2023-04-13T04:36:52.987Z,47.53
2023-04-13T04:39:22.520Z,51.50
2023-04-13T04:42:03.844Z,49.90
2023-04-13T04:44:31.495Z,48.90
2023-04-13T04:46:59.679Z,49.67
2023-04-13T04:49:28.160Z,67.80
2023-04-13T04:51:55.996Z,50.28
2023-04-13T04:54:24.162Z,49.38
2023-04-13T04:56:51.930Z,50.88
2023-04-13T04:59:23.987Z,51.22
2023-04-13T05:01:51.255Z,47.90
2023-04-13T05:04:18.133Z,52.00
2023-04-13T05:06:45.424Z,52.92
2023-04-13T05:09:13.028Z,46.83
2023-04-13T05:11:39.871Z,46.65
2023-04-13T05:14:07.382Z,43.78
2023-04-13T05:16:34.829Z,47.53
2023-04-13T05:19:02.249Z,50.47
2023-04-13T05:21:29.695Z,47.90
2023-04-13T05:23:57.028Z,49.17
2023-04-13T05:26:25.651Z,49.83
2023-04-13T05:28:53.012Z,45.58
2023-04-13T05:31:20.515Z,41.30
2023-04-13T05:33:48.116Z,44.00
2023-04-13T05:36:15.316Z,47.85
2023-04-13T05:38:42.994Z,46.42
2023-04-13T05:41:10.541Z,48.58
2023-04-13T05:43:37.933Z,45.60
2023-04-13T05:46:06.159Z,43.40
2023-04-13T05:48:34.560Z,51.83
2023-04-13T05:51:01.974Z,49.63
2023-04-13T05:53:29.316Z,54.10
2023-04-13T05:55:56.221Z,49.08
2023-04-13T05:58:26.686Z,50.47
2023-04-13T06:00:54.270Z,48.78
2023-04-13T06:03:21.926Z,61.13
2023-04-13T06:05:49.567Z,50.10
2023-04-13T06:08:17.073Z,53.08
2023-04-13T06:10:47.289Z,61.90
2023-04-13T06:13:14.723Z,50.63
2023-04-13T06:15:41.688Z,47.55
2023-04-13T06:18:08.912Z,53.53
2023-04-13T06:20:36.044Z,49.90
2023-04-13T06:23:03.307Z,43.55
2023-04-13T06:25:30.954Z,46.60
2023-04-13T06:27:58.165Z,44.97
2023-04-13T06:30:25.071Z,46.55
2023-04-13T06:32:52.742Z,53.63
2023-04-13T06:35:20.692Z,46.83
2023-04-13T06:37:48.131Z,59.15
2023-04-13T06:40:16.073Z,41.63
2023-04-13T06:42:43.830Z,35.83
2023-04-13T06:45:11.906Z,33.65
2023-04-13T06:47:41.213Z,37.55
2023-04-13T06:50:10.166Z,37.13
2023-04-13T06:52:37.607Z,32.13
2023-04-13T06:55:05.955Z,40.42
2023-04-13T06:57:33.921Z,33.20
2023-04-13T07:00:01.905Z,34.05
2023-04-13T07:02:29.306Z,29.42
2023-04-13T07:04:56.696Z,27.88
2023-04-13T07:07:23.608Z,24.05
2023-04-13T07:09:50.840Z,28.45
2023-04-13T07:12:18.037Z,28.75
2023-04-13T07:14:49.312Z,27.27
2023-04-13T07:17:16.913Z,30.13
2023-04-13T07:19:47.990Z,25.55
2023-04-13T07:22:15.309Z,28.15
2023-04-13T07:24:42.804Z,26.25
2023-04-13T07:27:10.160Z,27.52
2023-04-13T07:29:37.704Z,27.65
2023-04-13T07:32:06.224Z,32.00
2023-04-13T07:34:33.269Z,27.88
2023-04-13T07:37:00.519Z,23.02
2023-04-13T07:39:27.987Z,23.52
2023-04-13T07:41:54.818Z,23.20
2023-04-13T07:44:22.745Z,142.98
2023-04-13T07:46:49.623Z,32.13
2023-04-13T07:49:16.910Z,29.55
2023-04-13T07:51:44.186Z,20.50
2023-04-13T07:54:11.048Z,23.52
2023-04-13T07:56:37.884Z,22.73
2023-04-13T07:59:05.231Z,25.77
2023-04-13T08:01:33.023Z,23.45
2023-04-13T08:03:59.929Z,25.58
2023-04-13T08:06:27.528Z,25.67
2023-04-13T08:08:54.916Z,20.13
2023-04-13T08:11:22.179Z,20.50
2023-04-13T08:13:49.053Z,22.63
2023-04-13T08:16:16.961Z,21.45
2023-04-13T08:18:44.274Z,23.67
2023-04-13T08:21:12.232Z,26.85
2023-04-13T08:23:42.655Z,22.58
2023-04-13T08:26:18.882Z,34.85
2023-04-13T08:28:51.002Z,27.85
2023-04-13T08:31:17.880Z,28.60
2023-04-13T08:33:44.781Z,26.27
2023-04-13T08:36:12.235Z,33.00
2023-04-13T08:38:39.068Z,28.40
2023-04-13T08:41:07.249Z,29.77
2023-04-13T08:43:35.875Z,28.08
2023-04-13T08:46:06.625Z,25.67
2023-04-13T08:48:53.446Z,29.83
2023-04-13T08:51:22.821Z,24.95
2023-04-13T08:53:53.716Z,26.77
2023-04-13T08:56:31.049Z,24.55
2023-04-13T08:59:08.213Z,25.27
2023-04-13T09:01:38.043Z,28.08
2023-04-13T09:04:10.622Z,26.95
2023-04-13T09:06:41.445Z,23.55
2023-04-13T09:09:11.288Z,23.83
2023-04-13T09:11:39.220Z,25.92
2023-04-13T09:14:06.152Z,27.55
2023-04-13T09:16:43.558Z,27.88
2023-04-13T09:19:11.499Z,27.08
2023-04-13T09:21:43.118Z,25.52
2023-04-13T09:24:10.989Z,29.52
2023-04-13T09:26:45.776Z,23.85
2023-04-13T09:29:17.948Z,27.38
2023-04-13T09:31:46.617Z,31.55
2023-04-13T09:34:14.431Z,34.15
2023-04-13T09:36:53.313Z,28.42
2023-04-13T09:39:26.584Z,24.05
2023-04-13T09:41:55.078Z,27.45
2023-04-13T09:44:27.522Z,23.20
2023-04-13T09:47:02.280Z,23.75
2023-04-13T09:49:38.453Z,22.52
2023-04-13T09:52:26.597Z,20.05
2023-04-13T09:54:55.708Z,22.35
2023-04-13T09:57:30.403Z,19.77
2023-04-13T10:00:00.650Z,21.77
2023-04-13T10:02:28.470Z,22.75
2023-04-13T10:04:56.990Z,22.58
2023-04-13T10:07:28.821Z,23.35
2023-04-13T10:09:56.289Z,27.55
2023-04-13T10:12:26.961Z,22.23
2023-04-13T10:14:59.897Z,26.30
2023-04-13T10:20:01.612Z,24.40
2023-04-13T10:22:30.425Z,26.17
2023-04-13T10:24:57.715Z,24.55
2023-04-13T10:27:28.397Z,22.73
2023-04-13T10:29:55.704Z,27.13
2023-04-13T10:32:23.268Z,27.92
2023-04-13T10:34:51.223Z,25.67
2023-04-13T10:37:27.460Z,26.38
2023-04-13T10:40:24.244Z,37.03
2023-04-13T10:42:53.375Z,25.10
2023-04-13T10:45:26.382Z,20.73
2023-04-13T10:47:54.396Z,19.20
2023-04-13T10:50:27.324Z,19.73
2023-04-13T10:53:12.294Z,18.73
2023-04-13T10:55:39.486Z,17.20
2023-04-13T10:58:17.419Z,24.45
2023-04-13T11:00:47.068Z,23.38
2023-04-13T11:03:20.879Z,17.27
2023-04-13T11:05:56.614Z,19.02
2023-04-13T11:08:24.378Z,19.13
2023-04-13T11:10:55.497Z,17.90
2023-04-13T11:13:25.435Z,18.67
2023-04-13T11:15:53.769Z,22.27
2023-04-13T11:18:27.222Z,18.60
2023-04-13T11:20:54.576Z,20.65
2023-04-13T11:23:23.982Z,29.17
2023-04-13T11:25:58.626Z,18.73
2023-04-13T11:28:27.208Z,18.52
2023-04-13T11:30:55.527Z,18.38
2023-04-13T11:33:31.305Z,10.38
2023-04-13T11:36:00.263Z,9.38
2023-04-13T11:38:28.360Z,11.73
2023-04-13T11:43:35.141Z,9.40
2023-04-13T11:46:02.693Z,7.60
2023-04-13T11:48:29.676Z,11.00
2023-04-13T11:50:56.945Z,11.68
2023-04-13T11:53:24.439Z,9.40
2023-04-13T11:55:53.778Z,8.73
2023-04-13T11:58:21.866Z,8.45
2023-04-13T12:00:49.974Z,8.23
2023-04-13T12:05:48.351Z,7.20
2023-04-13T12:08:26.040Z,6.97
2023-04-13T12:14:05.833Z,6.75
2023-04-13T12:19:09.804Z,8.73
2023-04-13T12:21:39.895Z,6.28
2023-04-13T12:24:07.467Z,11.57
2023-04-13T12:27:10.275Z,10.57
2023-04-13T12:29:25.931Z,7.22
2023-04-13T12:31:58.819Z,16.67
2023-04-13T12:36:52.490Z,5.00
2023-04-13T12:39:19.507Z,9.60
2023-04-13T12:41:47.063Z,6.78
2023-04-13T12:44:14.931Z,7.00
2023-04-13T12:46:42.701Z,6.63
2023-04-13T12:49:09.942Z,4.20
2023-04-13T12:51:36.785Z,7.30
2023-04-13T12:54:08.789Z,20.88
2023-04-13T12:56:35.986Z,8.27
2023-04-13T12:59:03.205Z,5.97
2023-04-13T13:01:30.796Z,7.18
2023-04-13T13:03:58.154Z,6.00
2023-04-13T13:06:26.134Z,4.47
2023-04-13T13:08:53.014Z,6.40
2023-04-13T13:11:20.838Z,5.35
2023-04-13T13:13:48.365Z,4.70
2023-04-13T13:16:15.702Z,4.80
2023-04-13T13:18:50.485Z,8.43
2023-04-13T13:21:19.669Z,8.10
2023-04-13T13:23:46.947Z,7.70
2023-04-13T13:26:23.917Z,8.00
2023-04-13T13:28:52.449Z,4.97
2023-04-13T13:31:19.960Z,6.78
2023-04-13T13:33:47.309Z,3.97
2023-04-13T13:36:14.824Z,10.23
2023-04-13T13:38:57.298Z,5.40
2023-04-13T13:41:25.574Z,7.18
2023-04-13T13:43:52.902Z,7.65
2023-04-13T13:46:19.759Z,8.90
2023-04-13T13:48:47.033Z,8.73
2023-04-13T13:51:13.940Z,6.78
2023-04-13T13:53:41.167Z,5.38
2023-04-13T13:56:08.376Z,6.80
2023-04-13T13:58:35.591Z,6.07
2023-04-13T14:01:02.955Z,6.10
2023-04-13T14:03:30.491Z,10.93
2023-04-13T14:05:57.828Z,5.20
2023-04-13T14:08:25.020Z,5.80
2023-04-13T14:10:52.261Z,4.53
2023-04-13T14:13:19.472Z,5.93
2023-04-13T14:15:47.480Z,6.85
2023-04-13T14:18:14.829Z,6.38
2023-04-13T14:20:43.467Z,9.90
2023-04-13T14:23:11.263Z,6.88
2023-04-13T14:25:41.496Z,4.95
2023-04-13T14:28:09.291Z,6.18
2023-04-13T14:30:36.741Z,6.88
2023-04-13T14:33:04.552Z,6.63
2023-04-13T14:35:31.740Z,8.18
2023-04-13T14:37:59.613Z,8.63
2023-04-13T14:40:28.294Z,24.40
2023-04-13T14:42:55.137Z,6.40
2023-04-13T14:45:22.402Z,4.97
2023-04-13T14:47:49.781Z,5.13
2023-04-13T14:50:17.451Z,5.38
2023-04-13T14:52:45.869Z,5.90
2023-04-13T14:55:14.144Z,11.10
2023-04-13T14:57:42.102Z,11.98
2023-04-13T15:00:16.225Z,7.00
2023-04-13T15:02:43.632Z,7.75
2023-04-13T15:05:10.573Z,9.57
2023-04-13T15:07:38.236Z,5.35
2023-04-13T15:10:05.577Z,8.68
2023-04-13T15:12:32.824Z,7.40
2023-04-13T15:15:00.778Z,6.70
2023-04-13T15:17:29.606Z,9.38
2023-04-13T15:19:57.007Z,6.95
2023-04-13T15:22:24.228Z,6.72
2023-04-13T15:24:51.511Z,5.53
2023-04-13T15:27:18.755Z,6.60
2023-04-13T15:29:46.052Z,6.82
2023-04-13T15:32:13.377Z,8.25
2023-04-13T15:34:40.723Z,11.38
2023-04-13T15:37:07.584Z,6.75
2023-04-13T15:39:34.764Z,9.93
2023-04-13T15:42:02.184Z,9.13
2023-04-13T15:44:29.038Z,9.13
2023-04-13T15:46:56.210Z,7.95
2023-04-13T15:49:23.415Z,5.60
2023-04-13T15:51:50.891Z,6.70
2023-04-13T15:54:18.099Z,6.18
2023-04-13T15:56:45.462Z,12.63
2023-04-13T15:59:12.919Z,12.70
2023-04-13T16:01:47.928Z,10.30
2023-04-13T16:04:15.857Z,9.32
2023-04-13T16:06:43.189Z,11.73
2023-04-13T16:09:10.033Z,12.95
2023-04-13T16:11:39.898Z,50.80
2023-04-13T16:14:09.897Z,10.98
2023-04-13T16:16:53.431Z,20.50
2023-04-13T16:19:21.045Z,11.50
2023-04-13T16:21:51.155Z,25.20
2023-04-13T16:24:20.178Z,5.97
2023-04-13T16:26:47.360Z,11.40
2023-04-13T16:29:14.194Z,6.88
2023-04-13T16:31:44.894Z,6.72
2023-04-13T16:36:45.654Z,17.65
2023-04-13T16:39:13.334Z,10.40
2023-04-13T16:41:40.780Z,8.90
2023-04-13T16:44:08.019Z,12.27
2023-04-13T16:46:35.435Z,12.00
2023-04-13T16:49:02.759Z,10.05
2023-04-13T16:51:31.634Z,11.00
2023-04-13T16:53:58.853Z,13.38
2023-04-13T16:56:31.929Z,10.45
2023-04-13T17:01:26.961Z,15.27
2023-04-13T17:03:54.401Z,14.70
2023-04-13T17:06:21.702Z,15.35
2023-04-13T17:08:49.079Z,9.43
2023-04-13T17:11:15.995Z,11.55
2023-04-13T17:13:43.290Z,29.15
2023-04-13T17:16:10.933Z,34.22
2023-04-13T17:18:38.262Z,20.30
2023-04-13T17:21:05.201Z,30.90
2023-04-13T17:23:32.406Z,29.35
2023-04-13T17:25:59.299Z,20.90
2023-04-13T17:28:27.159Z,13.70
2023-04-13T17:30:54.451Z,31.60
2023-04-13T17:33:22.101Z,25.17
2023-04-13T17:35:53.034Z,13.20
2023-04-13T17:38:19.986Z,15.40
2023-04-13T17:40:47.233Z,12.63
2023-04-13T17:43:14.138Z,24.27
2023-04-13T17:45:41.036Z,16.33
2023-04-13T17:48:08.351Z,67.32
2023-04-13T17:50:35.305Z,44.30
2023-04-13T17:53:04.187Z,55.38
2023-04-13T17:55:32.112Z,43.17
2023-04-13T17:57:59.317Z,48.08
2023-04-13T18:00:28.899Z,54.22
2023-04-13T18:02:56.107Z,46.50
2023-04-13T18:05:24.114Z,36.13
2023-04-13T18:07:51.406Z,34.65
2023-04-13T18:10:18.729Z,22.08
2023-04-13T18:12:46.091Z,18.58
2023-04-13T18:15:13.308Z,17.73
2023-04-13T18:17:41.025Z,20.35
2023-04-13T18:20:09.158Z,19.55
2023-04-13T18:22:36.990Z,20.23
2023-04-13T18:25:04.376Z,22.20
2023-04-13T18:27:31.751Z,22.70
2023-04-13T18:29:58.935Z,20.55
2023-04-13T18:32:26.250Z,22.83
2023-04-13T18:34:53.051Z,21.60
2023-04-13T18:37:20.506Z,22.60
2023-04-13T18:39:47.716Z,22.20
2023-04-13T18:42:14.563Z,23.40
2023-04-13T18:44:41.831Z,22.98
2023-04-13T18:47:09.100Z,24.95
2023-04-13T18:49:36.362Z,25.10
2023-04-13T18:52:03.697Z,26.15
2023-04-13T18:54:32.304Z,30.13
2023-04-13T18:56:59.526Z,30.77
2023-04-13T18:59:28.179Z,33.33
2023-04-13T19:01:55.551Z,28.73
2023-04-13T19:04:23.071Z,27.73
2023-04-13T19:06:50.445Z,73.70
2023-04-13T19:09:18.277Z,46.70
2023-04-13T19:11:46.907Z,36.90
2023-04-13T19:14:14.315Z,41.20
2023-04-13T19:16:41.764Z,42.28
2023-04-13T19:19:09.121Z,46.70
2023-04-13T19:21:36.299Z,51.25
2023-04-13T19:24:04.039Z,51.08
2023-04-13T19:26:30.889Z,56.08
2023-04-13T19:28:57.958Z,55.28
2023-04-13T19:31:25.193Z,43.55
2023-04-13T19:33:53.353Z,47.20
2023-04-13T19:36:20.671Z,36.45
2023-04-13T19:38:48.000Z,44.03
2023-04-13T19:41:15.429Z,42.53
2023-04-13T19:43:42.235Z,38.00
2023-04-13T19:46:09.652Z,33.17
2023-04-13T19:48:36.988Z,35.15
2023-04-13T19:51:04.931Z,29.58
2023-04-13T19:53:32.241Z,31.10
2023-04-13T19:55:59.030Z,29.48
2023-04-13T19:58:26.628Z,28.73
2023-04-13T20:00:54.481Z,26.70
2023-04-13T20:03:21.661Z,24.85
2023-04-13T20:05:49.062Z,24.50
2023-04-13T20:08:17.074Z,22.05
2023-04-13T20:10:44.376Z,22.20
2023-04-13T20:13:11.553Z,155.13
2023-04-13T20:15:39.559Z,26.50
2023-04-13T20:18:07.287Z,28.08
2023-04-13T20:20:36.339Z,23.27
2023-04-13T20:23:03.877Z,22.05
2023-04-13T20:25:30.894Z,18.67
2023-04-13T20:27:58.089Z,19.02
2023-04-13T20:30:25.880Z,17.02
2023-04-13T20:32:53.149Z,20.70
2023-04-13T20:35:21.284Z,17.77
2023-04-13T20:37:49.222Z,17.88
2023-04-13T20:40:17.804Z,17.88
2023-04-13T20:42:45.295Z,18.05
2023-04-13T20:45:14.932Z,17.20
2023-04-13T20:47:42.718Z,18.77
2023-04-13T20:50:10.661Z,17.98
2023-04-13T20:52:41.893Z,20.92
2023-04-13T20:55:11.788Z,18.02
2023-04-13T20:57:42.632Z,19.15
2023-04-13T21:00:15.489Z,17.02
2023-04-13T21:05:10.886Z,16.50
2023-04-13T21:07:40.134Z,13.63
2023-04-13T21:10:08.398Z,15.48
2023-04-13T21:12:35.922Z,14.57
2023-04-13T21:15:04.170Z,14.25
2023-04-13T21:17:31.906Z,19.80
2023-04-13T21:19:58.759Z,17.65
2023-04-13T21:22:27.307Z,26.35
2023-04-13T21:24:54.245Z,55.17
2023-04-13T21:27:22.533Z,18.13
2023-04-13T21:29:49.706Z,19.55
2023-04-13T21:32:17.163Z,23.00
2023-04-13T21:34:44.551Z,21.58
2023-04-13T21:37:11.752Z,18.95
2023-04-13T21:39:38.920Z,20.02
2023-04-13T21:42:05.883Z,15.77
2023-04-13T21:44:33.074Z,18.20
2023-04-13T21:46:59.986Z,17.27
2023-04-13T21:49:27.509Z,24.95
2023-04-13T21:51:54.822Z,20.58
2023-04-13T21:54:22.200Z,20.45
2023-04-13T21:56:49.359Z,14.63
2023-04-13T21:59:16.235Z,15.10
2023-04-13T22:01:43.141Z,15.07
2023-04-13T22:04:10.196Z,15.43
2023-04-13T22:06:37.481Z,20.23
2023-04-13T22:09:04.494Z,18.60
2023-04-13T22:11:31.680Z,15.38
2023-04-13T22:14:00.298Z,15.73
2023-04-13T22:16:28.519Z,19.60
2023-04-13T22:18:55.776Z,17.73
2023-04-13T22:21:22.973Z,13.70
2023-04-13T22:23:50.384Z,11.73
2023-04-13T22:26:17.211Z,14.95
2023-04-13T22:28:44.044Z,13.02
2023-04-13T22:31:14.434Z,14.25
2023-04-13T22:33:41.726Z,17.05
2023-04-13T22:36:17.778Z,14.60
2023-04-13T22:38:44.618Z,14.13
2023-04-13T22:41:11.816Z,15.95
2023-04-13T22:43:39.461Z,13.55
2023-04-13T22:46:07.919Z,11.85
2023-04-13T22:48:35.301Z,14.15
2023-04-13T22:51:04.238Z,18.27
2023-04-13T22:53:31.758Z,12.05
2023-04-13T22:56:00.684Z,12.30
2023-04-13T22:58:28.172Z,12.95
2023-04-13T23:00:55.080Z,14.27
2023-04-13T23:03:22.649Z,13.35
2023-04-13T23:05:49.863Z,16.33
2023-04-13T23:08:17.195Z,13.88
2023-04-13T23:10:44.430Z,13.55
2023-04-13T23:13:11.737Z,14.32
2023-04-13T23:15:39.478Z,14.05
2023-04-13T23:18:06.643Z,11.55
2023-04-13T23:20:34.124Z,13.77
2023-04-13T23:23:01.779Z,17.00
2023-04-13T23:25:29.053Z,11.65
2023-04-13T23:27:56.312Z,14.68
2023-04-13T23:30:23.653Z,13.70
2023-04-13T23:32:51.031Z,13.77
2023-04-13T23:35:17.950Z,17.38
2023-04-13T23:37:46.240Z,14.23
2023-04-13T23:40:13.162Z,12.60
2023-04-13T23:42:40.592Z,12.45
2023-04-13T23:45:08.147Z,14.15
2023-04-13T23:47:35.018Z,14.57
2023-04-13T23:50:02.826Z,13.15
2023-04-13T23:52:30.041Z,14.75
2023-04-13T23:54:57.258Z,13.27
2023-04-13T23:57:24.444Z,13.48
2023-04-13T23:59:57.665Z,13.50
